^^
B2 Weather Station Historical Data
Daily Summary for November 17, 2018 Units:  English    Metric   Both
Daily Weekly Monthly Yearly Custom
  High: Low: Average:
Temperature: 37.8 °F 32.4 °F 35.2 °F
Dew Point: 35.5 °F 30.0 °F 33.1 °F
Humidity: 94% 88% 92%
Wind Speed: 11.5mph 0.0mph 3.2mph
Wind Gust: 9.1mph - -
Wind- - ENE
Pressure: 30.33 in 30.21 in -
Precipitation: 0.09 in    
Historical Graphs
 
 
Tabular Data for November 17, 2018
Time Temperature Dew Point Pressure Wind Wind Speed Wind Gust Humidity Rainfall Rate (Hourly) solar
00:04 33.8 °F 30.9 °F 30.21 in Calm     89% 0.00 in 0.00 W/m2
00:10 33.7 °F 30.5 °F 30.21 in Calm     88% 0.00 in 0.00 W/m2
00:14 33.6 °F 30.7 °F 30.22 in Calm     89% 0.00 in 0.00 W/m2
00:19 33.6 °F 30.7 °F 30.21 in Calm     89% 0.00 in 0.00 W/m2
00:25 33.5 °F 30.6 °F 30.21 in Calm     89% 0.00 in 0.00 W/m2
00:29 33.5 °F 30.6 °F 30.21 in Calm     89% 0.00 in 0.00 W/m2
00:34 33.5 °F 30.6 °F 30.21 in Calm     89% 0.00 in 0.00 W/m2
00:39 33.5 °F 30.6 °F 30.21 in Calm     89% 0.00 in 0.00 W/m2
00:44 33.5 °F 30.6 °F 30.22 in Calm     89% 0.00 in 0.00 W/m2
00:49 33.5 °F 30.6 °F 30.22 in Calm     89% 0.00 in 0.00 W/m2
00:54 33.5 °F 30.6 °F 30.21 in Calm     89% 0.00 in 0.00 W/m2
00:59 33.5 °F 30.9 °F 30.21 in Calm     90% 0.00 in 0.00 W/m2
01:04 33.4 °F 30.8 °F 30.21 in Calm     90% 0.00 in 0.00 W/m2
01:09 33.4 °F 30.8 °F 30.22 in WNW 1.2 mph 0.3 mph 90% 0.00 in 0.00 W/m2
01:14 33.4 °F 30.8 °F 30.22 in Calm     90% 0.00 in 0.00 W/m2
01:19 33.3 °F 30.7 °F 30.22 in Calm     90% 0.00 in 0.00 W/m2
01:24 33.3 °F 30.7 °F 30.21 in Calm     90% 0.00 in 0.00 W/m2
01:29 33.3 °F 30.7 °F 30.21 in Calm     90% 0.00 in 0.00 W/m2
01:34 33.2 °F 30.6 °F 30.21 in Calm     90% 0.00 in 0.00 W/m2
01:40 33.2 °F 30.6 °F 30.21 in Calm     90% 0.00 in 0.00 W/m2
01:44 33.1 °F 30.5 °F 30.22 in Calm     90% 0.00 in 0.00 W/m2
01:50 33.0 °F 30.4 °F 30.22 in Calm     90% 0.00 in 0.00 W/m2
01:54 33.0 °F 30.4 °F 30.22 in Calm     90% 0.00 in 0.00 W/m2
01:59 32.9 °F 30.3 °F 30.22 in Calm     90% 0.00 in 0.00 W/m2
02:04 32.8 °F 30.2 °F 30.22 in Calm     90% 0.00 in 0.00 W/m2
02:09 32.7 °F 30.1 °F 30.22 in Calm     90% 0.00 in 0.00 W/m2
02:14 32.6 °F 30.0 °F 30.22 in Calm     90% 0.00 in 0.00 W/m2
02:19 32.6 °F 30.3 °F 30.22 in Calm     91% 0.00 in 0.00 W/m2
02:24 32.6 °F 30.3 °F 30.22 in Calm     91% 0.00 in 0.00 W/m2
02:30 32.6 °F 30.3 °F 30.22 in Calm     91% 0.00 in 0.00 W/m2
02:35 32.5 °F 30.2 °F 30.22 in Calm     91% 0.00 in 0.00 W/m2
02:39 32.5 °F 30.2 °F 30.22 in SW 2.3 mph 0.4 mph 91% 0.00 in 0.00 W/m2
02:45 32.4 °F 30.1 °F 30.21 in Calm     91% 0.00 in 0.00 W/m2
02:49 32.5 °F 30.2 °F 30.22 in Calm     91% 0.00 in 0.00 W/m2
02:54 32.5 °F 30.2 °F 30.22 in Calm     91% 0.00 in 0.00 W/m2
02:59 32.6 °F 30.3 °F 30.22 in Calm     91% 0.00 in 0.00 W/m2
03:04 32.7 °F 30.4 °F 30.22 in Calm     91% 0.00 in 0.00 W/m2
03:09 32.8 °F 30.5 °F 30.22 in Calm     91% 0.00 in 0.00 W/m2
03:15 32.8 °F 30.5 °F 30.22 in Calm     91% 0.00 in 0.00 W/m2
03:20 32.8 °F 30.5 °F 30.22 in Calm     91% 0.00 in 0.00 W/m2
03:25 32.9 °F 30.6 °F 30.22 in Calm     91% 0.00 in 0.00 W/m2
03:29 33.2 °F 30.9 °F 30.22 in Calm     91% 0.00 in 0.00 W/m2
03:34 33.3 °F 31.0 °F 30.22 in Calm     91% 0.00 in 0.00 W/m2
03:40 33.5 °F 31.2 °F 30.22 in SW 2.3 mph 1.0 mph 91% 0.00 in 0.00 W/m2
03:44 33.4 °F 31.1 °F 30.22 in SSW 1.2 mph 0.5 mph 91% 0.00 in 0.00 W/m2
03:49 33.3 °F 31.0 °F 30.21 in South 3.5 mph 0.7 mph 91% 0.00 in 0.00 W/m2
03:55 33.1 °F 30.8 °F 30.22 in Calm     91% 0.00 in 0.00 W/m2
03:59 33.1 °F 30.8 °F 30.22 in Calm     91% 0.00 in 0.00 W/m2
04:05 33.0 °F 30.7 °F 30.21 in Calm     91% 0.00 in 0.00 W/m2
04:09 33.0 °F 30.7 °F 30.22 in Calm     91% 0.00 in 0.00 W/m2
04:14 33.0 °F 30.7 °F 30.22 in Calm     91% 0.00 in 0.00 W/m2
04:19 33.0 °F 30.7 °F 30.22 in South 2.3 mph 1.0 mph 91% 0.00 in 0.00 W/m2
04:25 33.0 °F 30.7 °F 30.22 in South 2.3 mph 1.0 mph 91% 0.00 in 0.00 W/m2
04:29 33.0 °F 30.7 °F 30.22 in SSE 3.5 mph 1.6 mph 91% 0.00 in 0.00 W/m2
04:35 33.0 °F 30.7 °F 30.22 in SE 3.5 mph 1.9 mph 91% 0.00 in 0.00 W/m2
04:39 33.0 °F 30.9 °F 30.22 in SE 2.3 mph 0.6 mph 92% 0.00 in 0.00 W/m2
04:44 33.0 °F 30.9 °F 30.22 in SE 1.2 mph 0.7 mph 92% 0.00 in 0.00 W/m2
04:49 33.0 °F 30.9 °F 30.22 in Calm     92% 0.00 in 0.00 W/m2
04:54 33.1 °F 31.0 °F 30.22 in Calm     92% 0.00 in 0.00 W/m2
04:59 33.2 °F 31.1 °F 30.23 in Calm     92% 0.00 in 0.00 W/m2
05:04 33.2 °F 31.1 °F 30.23 in Calm     92% 0.00 in 0.00 W/m2
05:09 33.3 °F 31.2 °F 30.23 in Calm     92% 0.00 in 0.00 W/m2
05:14 33.4 °F 31.3 °F 30.23 in Calm     92% 0.00 in 0.00 W/m2
05:19 33.6 °F 31.5 °F 30.23 in Calm     92% 0.00 in 0.00 W/m2
05:25 33.7 °F 31.4 °F 30.23 in Calm     91% 0.00 in 0.00 W/m2
05:29 33.7 °F 31.4 °F 30.23 in Calm     91% 0.00 in 0.00 W/m2
05:34 33.7 °F 31.4 °F 30.23 in Calm     91% 0.00 in 0.00 W/m2
05:40 33.7 °F 31.4 °F 30.23 in Calm     91% 0.00 in 0.00 W/m2
05:44 33.7 °F 31.4 °F 30.23 in SE 2.0 mph 0.6 mph 91% 0.00 in 0.00 W/m2
05:49 33.6 °F 31.3 °F 30.23 in Calm     91% 0.00 in 0.00 W/m2
05:55 33.5 °F 31.4 °F 30.23 in Calm     92% 0.00 in 0.00 W/m2
05:59 33.4 °F 31.3 °F 30.24 in Calm     92% 0.00 in 0.00 W/m2
06:04 33.4 °F 31.3 °F 30.24 in Calm     92% 0.00 in 0.00 W/m2
06:09 33.4 °F 31.3 °F 30.23 in Calm     92% 0.00 in 0.00 W/m2
06:14 33.4 °F 31.3 °F 30.23 in Calm     92% 0.00 in 0.00 W/m2
06:19 33.3 °F 31.2 °F 30.23 in Calm     92% 0.00 in 0.00 W/m2
06:24 33.3 °F 31.2 °F 30.24 in Calm     92% 0.00 in 0.00 W/m2
06:29 33.4 °F 31.3 °F 30.25 in Calm     92% 0.00 in 0.00 W/m2
06:34 33.5 °F 31.4 °F 30.25 in Calm     92% 0.00 in 0.00 W/m2
06:39 33.6 °F 31.5 °F 30.25 in Calm     92% 0.00 in 0.00 W/m2
06:44 33.8 °F 31.7 °F 30.25 in Calm     92% 0.00 in 0.00 W/m2
06:49 33.9 °F 31.8 °F 30.26 in Calm     92% 0.00 in 5.00 W/m2
06:55 33.9 °F 31.6 °F 30.26 in Calm     91% 0.00 in 7.00 W/m2
06:59 34.0 °F 31.6 °F 30.26 in Calm     91% 0.00 in 7.00 W/m2
07:04 34.0 °F 31.6 °F 30.26 in Calm     91% 0.00 in 11.00 W/m2
07:09 34.0 °F 31.6 °F 30.26 in Calm     91% 0.00 in 18.00 W/m2
07:15 34.1 °F 31.7 °F 30.26 in Calm     91% 0.00 in 19.00 W/m2
07:20 34.2 °F 32.1 °F 30.27 in Calm     92% 0.00 in 18.00 W/m2
07:25 34.3 °F 31.9 °F 30.27 in Calm     91% 0.00 in 19.00 W/m2
07:29 34.5 °F 32.4 °F 30.28 in Calm     92% 0.00 in 25.00 W/m2
07:35 34.6 °F 32.2 °F 30.28 in Calm     91% 0.00 in 30.00 W/m2
07:40 34.4 °F 32.0 °F 30.29 in Calm     91% 0.00 in 30.00 W/m2
07:44 34.4 °F 32.0 °F 30.29 in Calm     91% 0.00 in 40.00 W/m2
07:49 34.7 °F 32.3 °F 30.29 in Calm     91% 0.00 in 60.00 W/m2
07:55 34.9 °F 32.5 °F 30.29 in Calm     91% 0.00 in 65.00 W/m2
07:59 35.2 °F 32.8 °F 30.30 in Calm     91% 0.00 in 67.00 W/m2
08:04 35.5 °F 33.1 °F 30.30 in Calm     91% 0.00 in 62.00 W/m2
08:09 35.6 °F 33.2 °F 30.29 in Calm     91% 0.00 in 65.00 W/m2
08:14 35.7 °F 33.1 °F 30.29 in Calm     90% 0.00 in 70.00 W/m2
08:19 35.7 °F 33.1 °F 30.29 in Calm     90% 0.00 in 81.00 W/m2
08:25 35.7 °F 33.1 °F 30.29 in Calm     90% 0.00 in 95.00 W/m2
08:29 35.7 °F 33.1 °F 30.29 in Calm     90% 0.00 in 95.00 W/m2
08:35 35.7 °F 33.1 °F 30.29 in Calm     90% 0.00 in 98.00 W/m2
08:39 35.6 °F 33.2 °F 30.29 in Calm     91% 0.00 in 77.00 W/m2
08:44 35.7 °F 33.3 °F 30.29 in Calm     91% 0.00 in 98.00 W/m2
08:49 35.7 °F 33.3 °F 30.29 in Calm     91% 0.00 in 127.00 W/m2
08:54 36.0 °F 33.6 °F 30.29 in Calm     91% 0.00 in 118.00 W/m2
08:59 36.1 °F 33.7 °F 30.29 in Calm     91% 0.00 in 86.00 W/m2
09:04 36.2 °F 33.5 °F 30.30 in Calm     90% 0.00 in 58.00 W/m2
09:09 36.1 °F 33.5 °F 30.30 in Calm     90% 0.00 in 53.00 W/m2
09:14 36.3 °F 33.6 °F 30.30 in Calm     90% 0.00 in 65.00 W/m2
09:19 36.4 °F 33.7 °F 30.30 in Calm     90% 0.00 in 100.00 W/m2
09:24 36.7 °F 34.0 °F 30.30 in Calm     90% 0.00 in 120.00 W/m2
09:29 37.0 °F 34.3 °F 30.30 in Calm     90% 0.00 in 127.00 W/m2
09:34 37.3 °F 34.6 °F 30.30 in Calm     90% 0.00 in 111.00 W/m2
09:39 37.3 °F 34.4 °F 30.30 in Calm     89% 0.00 in 88.00 W/m2
09:45 37.3 °F 34.4 °F 30.30 in Calm     89% 0.00 in 72.00 W/m2
09:50 37.4 °F 34.5 °F 30.30 in Calm     89% 0.00 in 49.00 W/m2
09:54 37.5 °F 34.3 °F 30.30 in Calm     88% 0.00 in 58.00 W/m2
09:59 37.5 °F 34.3 °F 30.30 in Calm     88% 0.00 in 69.00 W/m2
10:04 37.5 °F 34.3 °F 30.30 in Calm     88% 0.00 in 77.00 W/m2
10:09 37.5 °F 34.3 °F 30.30 in Calm     88% 0.00 in 95.00 W/m2
10:14 37.6 °F 34.4 °F 30.30 in Calm     88% 0.00 in 91.00 W/m2
10:19 37.6 °F 34.4 °F 30.31 in Calm     88% 0.00 in 104.00 W/m2
10:24 37.8 °F 34.6 °F 30.31 in Calm     88% 0.00 in 91.00 W/m2
10:29 37.7 °F 34.5 °F 30.31 in Calm     88% 0.00 in 91.00 W/m2
10:34 37.6 °F 34.4 °F 30.31 in Calm     88% 0.00 in 84.00 W/m2
10:39 37.5 °F 34.3 °F 30.31 in Calm     88% 0.00 in 102.00 W/m2
10:45 37.7 °F 34.5 °F 30.31 in Calm     88% 0.00 in 93.00 W/m2
10:50 37.6 °F 34.4 °F 30.31 in Calm     88% 0.00 in 107.00 W/m2
10:55 37.8 °F 34.8 °F 30.31 in Calm     89% 0.00 in 98.00 W/m2
10:59 37.6 °F 34.4 °F 30.31 in Calm     88% 0.00 in 76.00 W/m2
11:04 37.4 °F 34.5 °F 30.31 in North 1.2 mph   89% 0.00 in 65.00 W/m2
11:09 37.3 °F 34.4 °F 30.31 in North 1.2 mph 0.3 mph 89% 0.00 in 63.00 W/m2
11:14 37.1 °F 34.4 °F 30.31 in North 1.0 mph   90% 0.00 in 74.00 W/m2
11:19 37.1 °F 34.4 °F 30.31 in North 3.5 mph 1.0 mph 90% 0.00 in 84.00 W/m2
11:24 37.0 °F 34.3 °F 30.31 in North 4.0 mph 2.8 mph 90% 0.00 in 83.00 W/m2
11:29 36.9 °F 34.5 °F 30.31 in North 3.5 mph 2.4 mph 91% 0.00 in 102.00 W/m2
11:34 36.8 °F 34.4 °F 30.31 in NNW 2.3 mph 1.0 mph 91% 0.00 in 125.00 W/m2
11:39 36.9 °F 34.5 °F 30.31 in NNW 3.5 mph 0.9 mph 91% 0.00 in 125.00 W/m2
11:45 37.0 °F 34.9 °F 30.31 in North 3.5 mph 2.1 mph 92% 0.00 in 127.00 W/m2
11:49 37.0 °F 34.6 °F 30.31 in North 3.5 mph 1.2 mph 91% 0.00 in 109.00 W/m2
11:54 37.0 °F 34.9 °F 30.30 in North 3.5 mph 0.8 mph 92% 0.00 in 132.00 W/m2
11:59 37.2 °F 35.1 °F 30.30 in Calm   1.0 mph 92% 0.00 in 113.00 W/m2
12:05 36.9 °F 34.8 °F 30.30 in North 4.6 mph 3.1 mph 92% 0.00 in 132.00 W/m2
12:09 36.9 °F 34.8 °F 30.30 in NNE 3.5 mph 0.6 mph 92% 0.00 in 83.00 W/m2
12:14 36.9 °F 34.8 °F 30.30 in NNE 2.3 mph 0.5 mph 92% 0.00 in 102.00 W/m2
12:20 36.9 °F 34.8 °F 30.30 in NNE 4.6 mph 2.1 mph 92% 0.00 in 100.00 W/m2
12:25 36.9 °F 34.8 °F 30.30 in North 3.5 mph 0.7 mph 92% 0.00 in 107.00 W/m2
12:29 37.0 °F 34.9 °F 30.30 in North 4.6 mph 1.0 mph 92% 0.00 in 84.00 W/m2
12:35 37.0 °F 34.9 °F 30.30 in NNE 4.6 mph 1.0 mph 92% 0.00 in 77.00 W/m2
12:40 36.8 °F 34.7 °F 30.30 in NNE 4.6 mph 3.0 mph 92% 0.00 in 58.00 W/m2
12:44 36.6 °F 34.8 °F 30.30 in NNE 6.0 mph 3.9 mph 93% 0.00 in 90.00 W/m2
12:50 36.5 °F 34.4 °F 30.29 in NNE 5.8 mph 2.4 mph 92% 0.00 in 70.00 W/m2
12:55 36.5 °F 34.7 °F 30.29 in NE 3.5 mph 2.1 mph 93% 0.00 in 72.00 W/m2
12:59 36.5 °F 34.7 °F 30.29 in North 5.0 mph 1.6 mph 93% 0.00 in 127.00 W/m2
13:04 36.7 °F 34.9 °F 30.29 in NE 6.0 mph 3.4 mph 93% 0.00 in 125.00 W/m2
13:10 36.7 °F 34.9 °F 30.29 in NNE 5.8 mph 3.5 mph 93% 0.00 in 125.00 W/m2
13:15 36.9 °F 35.1 °F 30.29 in NE 4.6 mph 3.1 mph 93% 0.00 in 93.00 W/m2
13:19 36.9 °F 35.1 °F 30.29 in NNE 5.8 mph 1.5 mph 93% 0.00 in 91.00 W/m2
13:24 37.1 °F 35.3 °F 30.29 in North 5.0 mph 2.2 mph 93% 0.00 in 86.00 W/m2
13:30 37.1 °F 35.3 °F 30.29 in NNE 6.9 mph 4.4 mph 93% 0.00 in 100.00 W/m2
13:35 37.2 °F 35.4 °F 30.29 in NE 6.9 mph 2.7 mph 93% 0.00 in 91.00 W/m2
13:39 37.3 °F 35.5 °F 30.29 in NE 3.5 mph 2.2 mph 93% 0.00 in 67.00 W/m2
13:44 37.3 °F 35.5 °F 30.29 in NNE 8.1 mph 2.6 mph 93% 0.00 in 77.00 W/m2
13:49 37.2 °F 35.4 °F 30.29 in NE 5.8 mph 3.6 mph 93% 0.00 in 67.00 W/m2
13:54 37.2 °F 35.4 °F 30.29 in NE 11.5 mph 6.8 mph 93% 0.00 in 53.00 W/m2
13:59 37.2 °F 35.4 °F 30.29 in NNE 10.4 mph 7.3 mph 93% 0.00 in 58.00 W/m2
14:05 37.1 °F 35.3 °F 30.29 in NNE 8.1 mph 4.7 mph 93% 0.00 in 49.00 W/m2
14:10 36.9 °F 35.1 °F 30.29 in NNE 11.5 mph 8.7 mph 93% 0.00 in 47.00 W/m2
14:14 36.9 °F 35.1 °F 30.29 in NNE 9.2 mph 6.7 mph 93% 0.00 in 46.00 W/m2
14:19 36.8 °F 35.0 °F 30.29 in NNE 9.2 mph 7.5 mph 93% 0.00 in 74.00 W/m2
14:24 36.9 °F 35.1 °F 30.29 in NNE 10.4 mph 8.1 mph 93% 0.00 in 65.00 W/m2
14:29 37.0 °F 35.2 °F 30.29 in NNE 8.1 mph 6.3 mph 93% 0.00 in 53.00 W/m2
14:34 36.9 °F 35.1 °F 30.29 in NNE 11.5 mph 5.7 mph 93% 0.00 in 49.00 W/m2
14:39 36.6 °F 34.8 °F 30.29 in NNE 11.5 mph 6.6 mph 93% 0.00 in 60.00 W/m2
14:44 36.6 °F 34.8 °F 30.29 in NNE 8.1 mph 7.1 mph 93% 0.00 in 42.00 W/m2
14:50 36.7 °F 34.9 °F 30.29 in NE 8.1 mph 6.0 mph 93% 0.00 in 44.00 W/m2
14:54 36.7 °F 34.9 °F 30.29 in NNE 8.1 mph 5.6 mph 93% 0.00 in 42.00 W/m2
14:59 36.8 °F 35.0 °F 30.29 in NNE 10.4 mph 6.2 mph 93% 0.00 in 40.00 W/m2
15:04 36.8 °F 35.0 °F 30.29 in NNE 8.1 mph 4.5 mph 93% 0.00 in 44.00 W/m2
15:09 36.8 °F 35.0 °F 30.30 in NE 9.2 mph 6.7 mph 93% 0.00 in 37.00 W/m2
15:15 36.8 °F 35.0 °F 30.30 in NNE 11.5 mph 7.9 mph 93% 0.00 in 28.00 W/m2
15:19 36.8 °F 35.0 °F 30.30 in NNE 7.0 mph 5.9 mph 93% 0.00 in 21.00 W/m2
15:24 36.8 °F 35.0 °F 30.30 in NNE 10.4 mph 8.1 mph 93% 0.00 in 19.00 W/m2
15:29 36.8 °F 35.0 °F 30.30 in NE 9.2 mph 4.3 mph 93% 0.00 in 16.00 W/m2
15:34 36.8 °F 35.0 °F 30.30 in NNE 9.2 mph 6.3 mph 93% 0.00 in 11.00 W/m2
15:39 36.8 °F 35.0 °F 30.30 in NNE 8.1 mph 5.8 mph 93% 0.00 in 14.00 W/m2
15:45 36.8 °F 35.0 °F 30.30 in NNE 6.9 mph 4.2 mph 93% 0.01 in 16.00 W/m2
15:49 36.8 °F 35.0 °F 30.30 in NE 10.4 mph 6.5 mph 93% 0.01 in 12.00 W/m2
15:55 36.7 °F 34.9 °F 30.30 in NNE 8.1 mph 5.5 mph 93% 0.01 in 12.00 W/m2
15:59 36.7 °F 34.9 °F 30.30 in NNE 8.1 mph 5.8 mph 93% 0.01 in 7.00 W/m2
16:04 36.6 °F 34.8 °F 30.30 in NE 8.1 mph 6.9 mph 93% 0.01 in 7.00 W/m2
16:09 36.6 °F 34.8 °F 30.30 in NNE 11.5 mph 6.6 mph 93% 0.01 in 0.00 W/m2
16:15 36.5 °F 34.9 °F 30.30 in NNE 9.2 mph 7.0 mph 94% 0.02 in 0.00 W/m2
16:19 36.5 °F 34.7 °F 30.30 in NE 6.9 mph 5.3 mph 93% 0.02 in 0.00 W/m2
16:25 36.5 °F 34.7 °F 30.30 in NE 11.5 mph 7.7 mph 93% 0.02 in 0.00 W/m2
16:29 36.5 °F 34.7 °F 30.30 in NNE 6.9 mph 4.9 mph 93% 0.02 in 0.00 W/m2
16:34 36.5 °F 34.7 °F 30.30 in NNE 8.1 mph 3.7 mph 93% 0.02 in 0.00 W/m2
16:40 36.5 °F 34.9 °F 30.30 in NNE 8.1 mph 5.9 mph 94% 0.02 in 0.00 W/m2
16:44 36.5 °F 34.9 °F 30.30 in NNE 4.6 mph 4.0 mph 94% 0.02 in 0.00 W/m2
16:50 36.4 °F 34.8 °F 30.30 in NNE 10.4 mph 8.1 mph 94% 0.01 in 0.00 W/m2
16:54 36.3 °F 34.7 °F 30.30 in NNE 11.5 mph 8.9 mph 94% 0.01 in 0.00 W/m2
16:59 36.2 °F 34.6 °F 30.30 in NNE 11.5 mph 9.1 mph 94% 0.01 in 0.00 W/m2
17:05 36.1 °F 34.5 °F 30.30 in NNE 10.4 mph 7.8 mph 94% 0.01 in 0.00 W/m2
17:09 36.1 °F 34.5 °F 30.30 in NE 10.4 mph 8.6 mph 94% 0.01 in 0.00 W/m2
17:15 36.0 °F 34.4 °F 30.30 in NNE 9.2 mph 5.9 mph 94% 0.01 in 0.00 W/m2
17:20 35.9 °F 34.3 °F 30.31 in NE 8.1 mph 5.5 mph 94% 0.01 in 0.00 W/m2
17:24 35.9 °F 34.3 °F 30.31 in NE 9.2 mph 6.7 mph 94% 0.01 in 0.00 W/m2
17:30 35.9 °F 34.3 °F 30.31 in NNE 9.2 mph 5.6 mph 94% 0.01 in 0.00 W/m2
17:35 35.8 °F 34.2 °F 30.31 in NE 8.1 mph 5.7 mph 94% 0.01 in 0.00 W/m2
17:39 35.8 °F 34.2 °F 30.31 in NE 6.9 mph 5.3 mph 94% 0.01 in 0.00 W/m2
17:44 35.8 °F 34.2 °F 30.31 in NE 6.0 mph 4.3 mph 94% 0.01 in 0.00 W/m2
17:50 35.8 °F 34.2 °F 30.31 in NNE 5.8 mph 3.9 mph 94% 0.01 in 0.00 W/m2
17:54 35.8 °F 34.2 °F 30.31 in NNE 6.9 mph 5.1 mph 94% 0.01 in 0.00 W/m2
17:59 35.8 °F 34.2 °F 30.31 in NNE 5.8 mph 3.2 mph 94% 0.01 in 0.00 W/m2
18:04 35.7 °F 34.1 °F 30.31 in NE 6.9 mph 3.7 mph 94% 0.01 in 0.00 W/m2
18:09 35.8 °F 34.2 °F 30.31 in NE 6.0 mph 4.8 mph 94% 0.01 in 0.00 W/m2
18:14 35.8 °F 34.2 °F 30.31 in NE 6.0 mph 4.9 mph 94% 0.01 in 0.00 W/m2
18:20 35.8 °F 34.2 °F 30.31 in NE 4.6 mph 3.8 mph 94% 0.00 in 0.00 W/m2
18:24 35.8 °F 34.2 °F 30.31 in NE 4.6 mph 4.2 mph 94% 0.00 in 0.00 W/m2
18:30 35.8 °F 34.2 °F 30.31 in NNE 6.0 mph 4.1 mph 94% 0.00 in 0.00 W/m2
18:35 35.8 °F 34.2 °F 30.32 in NE 5.8 mph 3.7 mph 94% 0.00 in 0.00 W/m2
18:39 35.7 °F 34.1 °F 30.32 in NE 5.8 mph 3.0 mph 94% 0.00 in 0.00 W/m2
18:44 35.7 °F 34.1 °F 30.32 in NE 4.6 mph 3.5 mph 94% 0.00 in 0.00 W/m2
18:49 35.7 °F 34.1 °F 30.32 in NE 5.8 mph 4.2 mph 94% 0.00 in 0.00 W/m2
18:54 35.7 °F 34.1 °F 30.32 in NE 5.8 mph 3.0 mph 94% 0.00 in 0.00 W/m2
18:59 35.7 °F 34.1 °F 30.32 in NE 5.8 mph 3.5 mph 94% 0.00 in 0.00 W/m2
19:04 35.7 °F 34.1 °F 30.32 in NE 5.0 mph 3.5 mph 94% 0.00 in 0.00 W/m2
19:10 35.7 °F 34.1 °F 30.32 in NE 5.0 mph 4.2 mph 94% 0.00 in 0.00 W/m2
19:14 35.7 °F 34.1 °F 30.31 in NE 4.0 mph 3.6 mph 94% 0.00 in 0.00 W/m2
19:20 35.8 °F 34.2 °F 30.32 in NE 4.6 mph 3.4 mph 94% 0.01 in 0.00 W/m2
19:25 35.8 °F 34.2 °F 30.31 in NE 4.0 mph 2.5 mph 94% 0.01 in 0.00 W/m2
19:29 35.8 °F 34.2 °F 30.31 in NE 3.5 mph 2.5 mph 94% 0.01 in 0.00 W/m2
19:34 35.8 °F 34.2 °F 30.31 in NE 3.5 mph 1.9 mph 94% 0.01 in 0.00 W/m2
19:40 35.8 °F 34.2 °F 30.31 in NE 3.5 mph 1.9 mph 94% 0.01 in 0.00 W/m2
19:45 35.8 °F 34.2 °F 30.31 in NE 3.5 mph 2.3 mph 94% 0.01 in 0.00 W/m2
19:49 35.7 °F 34.1 °F 30.32 in NE 4.6 mph 3.6 mph 94% 0.01 in 0.00 W/m2
19:54 35.7 °F 34.1 °F 30.32 in NE 6.9 mph 4.7 mph 94% 0.02 in 0.00 W/m2
19:59 35.7 °F 34.1 °F 30.32 in NE 4.6 mph 4.1 mph 94% 0.02 in 0.00 W/m2
20:05 35.6 °F 34.0 °F 30.32 in ENE 4.6 mph 2.9 mph 94% 0.02 in 0.00 W/m2
20:10 35.6 °F 34.0 °F 30.32 in ENE 4.0 mph 2.4 mph 94% 0.02 in 0.00 W/m2
20:15 35.6 °F 34.0 °F 30.32 in ENE 4.0 mph 1.8 mph 94% 0.02 in 0.00 W/m2
20:19 35.7 °F 34.1 °F 30.32 in NE 3.5 mph 2.8 mph 94% 0.01 in 0.00 W/m2
20:24 35.6 °F 34.0 °F 30.32 in NE 6.0 mph 4.8 mph 94% 0.01 in 0.00 W/m2
20:29 35.6 °F 34.0 °F 30.32 in ENE 5.8 mph 4.0 mph 94% 0.01 in 0.00 W/m2
20:35 35.5 °F 33.9 °F 30.31 in ENE 8.1 mph 4.5 mph 94% 0.02 in 0.00 W/m2
20:40 35.5 °F 33.9 °F 30.31 in NE 5.8 mph 4.1 mph 94% 0.02 in 0.00 W/m2
20:44 35.4 °F 33.8 °F 30.32 in NE 5.8 mph 4.1 mph 94% 0.02 in 0.00 W/m2
20:50 35.3 °F 33.7 °F 30.32 in NE 6.9 mph 3.9 mph 94% 0.02 in 0.00 W/m2
20:54 35.2 °F 33.6 °F 30.32 in ENE 8.1 mph 4.6 mph 94% 0.01 in 0.00 W/m2
20:59 35.0 °F 33.4 °F 30.32 in NE 6.9 mph 4.4 mph 94% 0.01 in 0.00 W/m2
21:04 35.0 °F 33.4 °F 30.32 in NE 5.0 mph 4.2 mph 94% 0.02 in 0.00 W/m2
21:09 34.8 °F 33.2 °F 30.32 in NE 8.1 mph 4.0 mph 94% 0.02 in 0.00 W/m2
21:15 34.6 °F 33.1 °F 30.32 in ENE 6.9 mph 5.0 mph 94% 0.02 in 0.00 W/m2
21:19 34.6 °F 33.1 °F 30.32 in NE 4.6 mph 3.3 mph 94% 0.02 in 0.00 W/m2
21:24 34.4 °F 32.9 °F 30.32 in NE 8.1 mph 3.4 mph 94% 0.02 in 0.00 W/m2
21:29 34.3 °F 32.8 °F 30.32 in NE 6.9 mph 4.2 mph 94% 0.03 in 0.00 W/m2
21:35 34.2 °F 32.7 °F 30.32 in NE 5.8 mph 4.1 mph 94% 0.02 in 0.00 W/m2
21:39 34.2 °F 32.7 °F 30.32 in NE 4.0 mph 3.5 mph 94% 0.02 in 0.00 W/m2
21:44 34.1 °F 32.6 °F 30.32 in ENE 4.6 mph 3.3 mph 94% 0.02 in 0.00 W/m2
21:49 34.1 °F 32.6 °F 30.32 in NE 3.5 mph 3.5 mph 94% 0.02 in 0.00 W/m2
21:54 34.0 °F 32.5 °F 30.32 in NE 3.5 mph 1.6 mph 94% 0.02 in 0.00 W/m2
21:59 34.0 °F 32.5 °F 30.32 in NE 3.5 mph 2.4 mph 94% 0.02 in 0.00 W/m2
22:05 34.0 °F 32.5 °F 30.32 in NE 3.5 mph 1.2 mph 94% 0.01 in 0.00 W/m2
22:10 33.9 °F 32.4 °F 30.32 in NE 3.5 mph 1.6 mph 94% 0.01 in 0.00 W/m2
22:15 33.9 °F 32.4 °F 30.33 in NE 1.2 mph   94% 0.02 in 0.00 W/m2
22:20 34.0 °F 32.5 °F 30.33 in Calm     94% 0.02 in 0.00 W/m2
22:24 34.1 °F 32.6 °F 30.32 in NE 2.3 mph 0.8 mph 94% 0.02 in 0.00 W/m2
22:29 34.1 °F 32.6 °F 30.32 in ENE 3.5 mph 1.7 mph 94% 0.01 in 0.00 W/m2
22:34 34.1 °F 32.6 °F 30.32 in NE 3.5 mph 1.9 mph 94% 0.01 in 0.00 W/m2
22:39 34.2 °F 32.7 °F 30.32 in NE 3.5 mph 1.6 mph 94% 0.01 in 0.00 W/m2
22:44 34.2 °F 32.7 °F 30.32 in NE 3.5 mph 1.8 mph 94% 0.01 in 0.00 W/m2
22:49 34.2 °F 32.7 °F 30.32 in NE 2.3 mph 1.0 mph 94% 0.01 in 0.00 W/m2
22:55 34.2 °F 32.7 °F 30.31 in ENE 3.5 mph 1.7 mph 94% 0.01 in 0.00 W/m2
22:59 34.2 °F 32.7 °F 30.31 in ENE 3.5 mph 1.9 mph 94% 0.01 in 0.00 W/m2
23:04 34.3 °F 32.8 °F 30.31 in Calm     94% 0.01 in 0.00 W/m2
23:09 34.3 °F 32.8 °F 30.31 in Calm     94% 0.01 in 0.00 W/m2
23:14 34.3 °F 32.8 °F 30.31 in Calm     94% 0.00 in 0.00 W/m2
23:20 34.3 °F 32.8 °F 30.31 in Calm     94% 0.00 in 0.00 W/m2
23:25 34.3 °F 32.8 °F 30.31 in Calm     94% 0.00 in 0.00 W/m2
23:30 34.4 °F 32.9 °F 30.31 in Calm     94% 0.00 in 0.00 W/m2
23:35 34.4 °F 32.9 °F 30.32 in Calm     94% 0.00 in 0.00 W/m2
23:40 34.5 °F 33.0 °F 30.32 in Calm     94% 0.00 in 0.00 W/m2
23:44 34.6 °F 33.1 °F 30.32 in Calm     94% 0.00 in 0.00 W/m2
23:49 34.6 °F 33.1 °F 30.31 in NNE 5.0 mph 3.9 mph 94% 0.00 in 0.00 W/m2
23:54 34.6 °F 33.1 °F 30.31 in NNE 4.6 mph 3.7 mph 94% 0.00 in 0.00 W/m2
23:59 34.5 °F 33.0 °F 30.31 in NNE 4.6 mph 3.5 mph 94% 0.00 in 0.00 W/m2
Bourbonnais, Illinois, USA
Compliments of Weather Underground - 4 mb